sensor_id;sensor_type;location;lat;lon;timestamp;P1;durP1;ratioP1;P2;durP2;ratioP2
944;SDS011;459;48.676;9.034;2022-08-11T00:01:26;3.00;;;2.77;;
944;SDS011;459;48.676;9.034;2022-08-11T00:03:53;3.80;;;3.50;;
944;SDS011;459;48.676;9.034;2022-08-11T00:06:29;2.93;;;2.73;;
944;SDS011;459;48.676;9.034;2022-08-11T00:08:55;2.77;;;2.57;;
944;SDS011;459;48.676;9.034;2022-08-11T00:11:21;2.93;;;2.70;;
944;SDS011;459;48.676;9.034;2022-08-11T00:13:48;3.70;;;2.43;;
944;SDS011;459;48.676;9.034;2022-08-11T00:16:17;3.03;;;2.73;;
944;SDS011;459;48.676;9.034;2022-08-11T00:18:44;2.30;;;2.10;;
944;SDS011;459;48.676;9.034;2022-08-11T00:21:09;3.97;;;2.77;;
944;SDS011;459;48.676;9.034;2022-08-11T00:23:38;3.23;;;2.93;;
944;SDS011;459;48.676;9.034;2022-08-11T00:26:05;3.80;;;3.20;;
944;SDS011;459;48.676;9.034;2022-08-11T00:28:32;2.90;;;2.70;;
944;SDS011;459;48.676;9.034;2022-08-11T00:30:58;4.90;;;2.77;;
944;SDS011;459;48.676;9.034;2022-08-11T00:33:29;4.27;;;2.80;;
944;SDS011;459;48.676;9.034;2022-08-11T00:36:15;3.83;;;2.90;;
944;SDS011;459;48.676;9.034;2022-08-11T00:38:41;3.97;;;3.10;;
944;SDS011;459;48.676;9.034;2022-08-11T00:46:07;3.22;;;2.92;;
944;SDS011;459;48.676;9.034;2022-08-11T00:53:53;2.85;;;2.65;;
944;SDS011;459;48.676;9.034;2022-08-11T00:56:37;3.57;;;3.27;;
944;SDS011;459;48.676;9.034;2022-08-11T01:01:50;3.23;;;2.93;;
944;SDS011;459;48.676;9.034;2022-08-11T01:12:14;3.17;;;2.93;;
944;SDS011;459;48.676;9.034;2022-08-11T01:33:45;3.27;;;2.97;;
944;SDS011;459;48.676;9.034;2022-08-11T01:44:56;3.70;;;3.40;;
944;SDS011;459;48.676;9.034;2022-08-11T01:52:48;2.70;;;2.50;;
944;SDS011;459;48.676;9.034;2022-08-11T01:55:27;3.10;;;2.90;;
944;SDS011;459;48.676;9.034;2022-08-11T01:58:00;3.20;;;2.90;;
944;SDS011;459;48.676;9.034;2022-08-11T02:00:29;3.57;;;2.60;;
944;SDS011;459;48.676;9.034;2022-08-11T02:03:11;2.87;;;2.67;;
944;SDS011;459;48.676;9.034;2022-08-11T02:13:48;3.13;;;2.83;;
944;SDS011;459;48.676;9.034;2022-08-11T02:16:18;3.70;;;3.40;;
944;SDS011;459;48.676;9.034;2022-08-11T02:18:51;3.00;;;2.80;;
944;SDS011;459;48.676;9.034;2022-08-11T02:21:43;3.13;;;2.83;;
944;SDS011;459;48.676;9.034;2022-08-11T02:24:30;4.17;;;3.20;;
944;SDS011;459;48.676;9.034;2022-08-11T02:27:01;3.30;;;2.83;;
944;SDS011;459;48.676;9.034;2022-08-11T02:29:31;3.40;;;3.20;;
944;SDS011;459;48.676;9.034;2022-08-11T02:32:01;3.60;;;3.30;;
944;SDS011;459;48.676;9.034;2022-08-11T02:34:48;3.47;;;3.20;;
944;SDS011;459;48.676;9.034;2022-08-11T02:37:19;3.63;;;3.33;;
944;SDS011;459;48.676;9.034;2022-08-11T02:42:29;3.50;;;3.00;;
944;SDS011;459;48.676;9.034;2022-08-11T02:45:01;3.50;;;3.20;;
944;SDS011;459;48.676;9.034;2022-08-11T02:50:00;3.30;;;3.10;;
944;SDS011;459;48.676;9.034;2022-08-11T02:52:35;3.30;;;3.10;;
944;SDS011;459;48.676;9.034;2022-08-11T02:58:10;3.47;;;3.27;;
944;SDS011;459;48.676;9.034;2022-08-11T03:00:27;4.40;;;3.40;;
944;SDS011;459;48.676;9.034;2022-08-11T03:08:22;3.33;;;3.03;;
944;SDS011;459;48.676;9.034;2022-08-11T03:10:50;4.47;;;2.93;;
944;SDS011;459;48.676;9.034;2022-08-11T03:13:39;3.53;;;3.23;;
944;SDS011;459;48.676;9.034;2022-08-11T03:21:45;3.80;;;3.60;;
944;SDS011;459;48.676;9.034;2022-08-11T03:24:50;3.77;;;3.47;;
944;SDS011;459;48.676;9.034;2022-08-11T03:27:06;4.07;;;3.43;;
944;SDS011;459;48.676;9.034;2022-08-11T03:29:34;6.23;;;3.43;;
944;SDS011;459;48.676;9.034;2022-08-11T03:34:29;4.07;;;3.70;;
944;SDS011;459;48.676;9.034;2022-08-11T03:44:58;3.80;;;3.50;;
944;SDS011;459;48.676;9.034;2022-08-11T03:50:06;3.60;;;3.30;;
944;SDS011;459;48.676;9.034;2022-08-11T03:52:41;4.07;;;3.80;;
944;SDS011;459;48.676;9.034;2022-08-11T03:57:47;4.37;;;3.97;;
944;SDS011;459;48.676;9.034;2022-08-11T04:00:22;4.33;;;3.93;;
944;SDS011;459;48.676;9.034;2022-08-11T04:16:07;5.20;;;4.00;;
944;SDS011;459;48.676;9.034;2022-08-11T04:30:57;5.53;;;3.85;;
944;SDS011;459;48.676;9.034;2022-08-11T04:33:36;4.10;;;3.80;;
944;SDS011;459;48.676;9.034;2022-08-11T04:36:10;3.77;;;3.47;;
944;SDS011;459;48.676;9.034;2022-08-11T04:41:22;3.87;;;3.57;;
944;SDS011;459;48.676;9.034;2022-08-11T04:44:06;5.50;;;4.00;;
944;SDS011;459;48.676;9.034;2022-08-11T04:58:03;3.70;;;3.50;;
944;SDS011;459;48.676;9.034;2022-08-11T05:04:10;4.63;;;4.23;;
944;SDS011;459;48.676;9.034;2022-08-11T05:09:52;5.90;;;4.70;;
944;SDS011;459;48.676;9.034;2022-08-11T05:12:28;5.90;;;4.13;;
944;SDS011;459;48.676;9.034;2022-08-11T05:14:56;4.23;;;3.93;;
944;SDS011;459;48.676;9.034;2022-08-11T05:17:55;6.10;;;4.17;;
944;SDS011;459;48.676;9.034;2022-08-11T05:20:45;5.73;;;4.80;;
944;SDS011;459;48.676;9.034;2022-08-11T05:23:29;6.30;;;5.20;;
944;SDS011;459;48.676;9.034;2022-08-11T05:26:15;5.20;;;4.60;;
944;SDS011;459;48.676;9.034;2022-08-11T05:29:01;6.43;;;4.60;;
944;SDS011;459;48.676;9.034;2022-08-11T05:31:45;5.13;;;4.00;;
944;SDS011;459;48.676;9.034;2022-08-11T05:34:50;5.27;;;4.80;;
944;SDS011;459;48.676;9.034;2022-08-11T05:37:30;4.20;;;3.80;;
944;SDS011;459;48.676;9.034;2022-08-11T05:42:53;4.07;;;3.60;;
944;SDS011;459;48.676;9.034;2022-08-11T05:45:38;6.00;;;4.50;;
944;SDS011;459;48.676;9.034;2022-08-11T05:48:23;4.20;;;3.80;;
944;SDS011;459;48.676;9.034;2022-08-11T05:51:12;4.87;;;4.27;;
944;SDS011;459;48.676;9.034;2022-08-11T05:53:58;4.40;;;3.60;;
944;SDS011;459;48.676;9.034;2022-08-11T05:56:53;6.00;;;4.30;;
944;SDS011;459;48.676;9.034;2022-08-11T05:59:19;4.47;;;4.17;;
944;SDS011;459;48.676;9.034;2022-08-11T06:01:45;5.30;;;4.80;;
944;SDS011;459;48.676;9.034;2022-08-11T06:04:14;4.33;;;3.93;;
944;SDS011;459;48.676;9.034;2022-08-11T06:06:47;5.00;;;4.50;;
944;SDS011;459;48.676;9.034;2022-08-11T06:09:15;5.50;;;4.30;;
944;SDS011;459;48.676;9.034;2022-08-11T06:11:44;7.50;;;4.23;;
944;SDS011;459;48.676;9.034;2022-08-11T06:14:09;5.30;;;3.90;;
944;SDS011;459;48.676;9.034;2022-08-11T06:16:35;5.80;;;4.80;;
944;SDS011;459;48.676;9.034;2022-08-11T06:19:01;4.63;;;3.90;;
944;SDS011;459;48.676;9.034;2022-08-11T06:21:27;5.63;;;4.60;;
944;SDS011;459;48.676;9.034;2022-08-11T06:23:52;7.07;;;4.00;;
944;SDS011;459;48.676;9.034;2022-08-11T06:26:18;5.57;;;4.33;;
944;SDS011;459;48.676;9.034;2022-08-11T06:28:44;4.40;;;4.10;;
944;SDS011;459;48.676;9.034;2022-08-11T06:31:11;4.53;;;4.07;;
944;SDS011;459;48.676;9.034;2022-08-11T06:33:38;5.60;;;4.70;;
944;SDS011;459;48.676;9.034;2022-08-11T06:38:46;4.53;;;3.80;;
944;SDS011;459;48.676;9.034;2022-08-11T06:44:08;3.73;;;3.40;;
944;SDS011;459;48.676;9.034;2022-08-11T06:47:03;4.07;;;3.77;;
944;SDS011;459;48.676;9.034;2022-08-11T06:49:34;4.33;;;3.80;;
944;SDS011;459;48.676;9.034;2022-08-11T06:52:18;9.13;;;5.97;;
944;SDS011;459;48.676;9.034;2022-08-11T06:54:52;4.40;;;4.10;;
944;SDS011;459;48.676;9.034;2022-08-11T06:57:30;4.33;;;3.87;;
944;SDS011;459;48.676;9.034;2022-08-11T07:00:15;4.10;;;3.70;;
944;SDS011;459;48.676;9.034;2022-08-11T07:02:56;4.60;;;3.70;;
944;SDS011;459;48.676;9.034;2022-08-11T07:05:30;5.23;;;4.30;;
944;SDS011;459;48.676;9.034;2022-08-11T07:14:04;4.23;;;3.80;;
944;SDS011;459;48.676;9.034;2022-08-11T07:16:49;4.50;;;3.50;;
944;SDS011;459;48.676;9.034;2022-08-11T07:19:24;5.73;;;4.30;;
944;SDS011;459;48.676;9.034;2022-08-11T07:22:09;3.93;;;3.63;;
944;SDS011;459;48.676;9.034;2022-08-11T07:24:56;4.90;;;4.20;;
944;SDS011;459;48.676;9.034;2022-08-11T07:27:46;5.67;;;3.43;;
944;SDS011;459;48.676;9.034;2022-08-11T07:30:30;4.57;;;4.07;;
944;SDS011;459;48.676;9.034;2022-08-11T07:32:58;4.53;;;4.10;;
944;SDS011;459;48.676;9.034;2022-08-11T07:37:55;4.50;;;3.43;;
944;SDS011;459;48.676;9.034;2022-08-11T07:40:22;3.83;;;3.53;;
944;SDS011;459;48.676;9.034;2022-08-11T07:42:48;4.10;;;3.70;;
944;SDS011;459;48.676;9.034;2022-08-11T07:45:14;5.37;;;3.70;;
944;SDS011;459;48.676;9.034;2022-08-11T07:47:58;4.90;;;4.50;;
944;SDS011;459;48.676;9.034;2022-08-11T07:50:43;4.83;;;4.00;;
944;SDS011;459;48.676;9.034;2022-08-11T07:53:27;5.07;;;3.93;;
944;SDS011;459;48.676;9.034;2022-08-11T07:55:53;5.97;;;4.00;;
944;SDS011;459;48.676;9.034;2022-08-11T07:58:20;4.23;;;3.70;;
944;SDS011;459;48.676;9.034;2022-08-11T08:01:04;4.10;;;3.70;;
944;SDS011;459;48.676;9.034;2022-08-11T08:03:48;5.20;;;3.87;;
944;SDS011;459;48.676;9.034;2022-08-11T08:06:32;4.27;;;3.97;;
944;SDS011;459;48.676;9.034;2022-08-11T08:09:17;4.70;;;4.00;;
944;SDS011;459;48.676;9.034;2022-08-11T08:12:02;4.40;;;4.00;;
944;SDS011;459;48.676;9.034;2022-08-11T08:14:46;5.50;;;4.27;;
944;SDS011;459;48.676;9.034;2022-08-11T08:17:30;5.33;;;4.03;;
944;SDS011;459;48.676;9.034;2022-08-11T08:20:15;4.20;;;3.80;;
944;SDS011;459;48.676;9.034;2022-08-11T08:22:40;4.50;;;3.40;;
944;SDS011;459;48.676;9.034;2022-08-11T08:25:06;3.77;;;3.37;;
944;SDS011;459;48.676;9.034;2022-08-11T08:27:32;4.23;;;3.93;;
944;SDS011;459;48.676;9.034;2022-08-11T08:29:58;3.97;;;3.63;;
944;SDS011;459;48.676;9.034;2022-08-11T08:32:42;3.40;;;3.10;;
944;SDS011;459;48.676;9.034;2022-08-11T08:35:11;3.97;;;3.60;;
944;SDS011;459;48.676;9.034;2022-08-11T08:37:37;5.00;;;3.73;;
944;SDS011;459;48.676;9.034;2022-08-11T08:40:04;3.63;;;3.33;;
944;SDS011;459;48.676;9.034;2022-08-11T08:42:34;3.97;;;3.57;;
944;SDS011;459;48.676;9.034;2022-08-11T08:45:05;3.97;;;3.60;;
944;SDS011;459;48.676;9.034;2022-08-11T08:47:35;5.63;;;3.33;;
944;SDS011;459;48.676;9.034;2022-08-11T08:50:05;3.77;;;3.47;;
944;SDS011;459;48.676;9.034;2022-08-11T08:52:39;7.37;;;3.43;;
944;SDS011;459;48.676;9.034;2022-08-11T08:55:07;4.37;;;3.97;;
944;SDS011;459;48.676;9.034;2022-08-11T08:57:34;4.27;;;3.97;;
944;SDS011;459;48.676;9.034;2022-08-11T08:59:59;4.43;;;4.03;;
944;SDS011;459;48.676;9.034;2022-08-11T09:02:25;5.00;;;3.90;;
944;SDS011;459;48.676;9.034;2022-08-11T09:04:51;6.30;;;3.30;;
944;SDS011;459;48.676;9.034;2022-08-11T09:07:17;4.47;;;4.10;;
944;SDS011;459;48.676;9.034;2022-08-11T09:09:44;5.40;;;3.57;;
944;SDS011;459;48.676;9.034;2022-08-11T09:12:11;3.20;;;3.00;;
944;SDS011;459;48.676;9.034;2022-08-11T09:14:37;4.03;;;3.67;;
944;SDS011;459;48.676;9.034;2022-08-11T09:17:22;3.60;;;3.40;;
944;SDS011;459;48.676;9.034;2022-08-11T09:19:48;3.43;;;3.13;;
944;SDS011;459;48.676;9.034;2022-08-11T09:22:17;3.73;;;3.43;;
944;SDS011;459;48.676;9.034;2022-08-11T09:25:01;3.77;;;3.43;;
944;SDS011;459;48.676;9.034;2022-08-11T09:27:46;3.37;;;3.17;;
944;SDS011;459;48.676;9.034;2022-08-11T09:30:11;4.03;;;3.57;;
944;SDS011;459;48.676;9.034;2022-08-11T09:32:37;4.47;;;3.70;;
944;SDS011;459;48.676;9.034;2022-08-11T09:35:03;4.00;;;3.70;;
944;SDS011;459;48.676;9.034;2022-08-11T09:37:28;2.97;;;2.77;;
944;SDS011;459;48.676;9.034;2022-08-11T09:40:13;3.63;;;3.33;;
944;SDS011;459;48.676;9.034;2022-08-11T09:42:55;5.50;;;3.70;;
944;SDS011;459;48.676;9.034;2022-08-11T09:45:39;3.70;;;3.40;;
944;SDS011;459;48.676;9.034;2022-08-11T09:48:04;3.80;;;3.50;;
944;SDS011;459;48.676;9.034;2022-08-11T09:50:31;3.63;;;3.33;;
944;SDS011;459;48.676;9.034;2022-08-11T09:52:57;7.50;;;3.70;;
944;SDS011;459;48.676;9.034;2022-08-11T09:55:23;5.27;;;3.37;;
944;SDS011;459;48.676;9.034;2022-08-11T09:57:49;3.93;;;3.63;;
944;SDS011;459;48.676;9.034;2022-08-11T10:00:34;5.40;;;3.60;;
944;SDS011;459;48.676;9.034;2022-08-11T10:03:05;3.40;;;3.10;;
944;SDS011;459;48.676;9.034;2022-08-11T10:05:31;3.90;;;3.60;;
944;SDS011;459;48.676;9.034;2022-08-11T10:08:16;3.40;;;3.10;;
944;SDS011;459;48.676;9.034;2022-08-11T10:10:42;4.30;;;3.33;;
944;SDS011;459;48.676;9.034;2022-08-11T10:13:10;3.50;;;3.20;;
944;SDS011;459;48.676;9.034;2022-08-11T10:15:37;3.83;;;3.43;;
944;SDS011;459;48.676;9.034;2022-08-11T10:18:07;3.70;;;3.40;;
944;SDS011;459;48.676;9.034;2022-08-11T10:20:52;4.00;;;3.07;;
944;SDS011;459;48.676;9.034;2022-08-11T10:23:19;4.07;;;3.67;;
944;SDS011;459;48.676;9.034;2022-08-11T10:26:03;3.53;;;3.23;;
944;SDS011;459;48.676;9.034;2022-08-11T10:28:48;4.77;;;3.80;;
944;SDS011;459;48.676;9.034;2022-08-11T10:31:13;3.70;;;3.40;;
944;SDS011;459;48.676;9.034;2022-08-11T10:33:57;4.07;;;3.80;;
944;SDS011;459;48.676;9.034;2022-08-11T10:36:29;3.30;;;3.00;;
944;SDS011;459;48.676;9.034;2022-08-11T10:38:55;3.63;;;3.27;;
944;SDS011;459;48.676;9.034;2022-08-11T10:41:21;3.67;;;3.33;;
944;SDS011;459;48.676;9.034;2022-08-11T10:44:05;5.90;;;3.40;;
944;SDS011;459;48.676;9.034;2022-08-11T10:46:31;3.03;;;2.73;;
944;SDS011;459;48.676;9.034;2022-08-11T10:49:15;4.00;;;2.93;;
944;SDS011;459;48.676;9.034;2022-08-11T10:51:41;3.90;;;3.10;;
944;SDS011;459;48.676;9.034;2022-08-11T10:54:25;6.90;;;3.27;;
944;SDS011;459;48.676;9.034;2022-08-11T10:57:09;3.73;;;3.53;;
944;SDS011;459;48.676;9.034;2022-08-11T10:59:55;3.17;;;2.80;;
944;SDS011;459;48.676;9.034;2022-08-11T11:02:20;3.40;;;3.00;;
944;SDS011;459;48.676;9.034;2022-08-11T11:05:31;3.83;;;3.53;;
944;SDS011;459;48.676;9.034;2022-08-11T11:07:37;3.57;;;2.87;;
944;SDS011;459;48.676;9.034;2022-08-11T11:10:04;3.00;;;2.70;;
944;SDS011;459;48.676;9.034;2022-08-11T11:12:34;3.23;;;2.97;;
944;SDS011;459;48.676;9.034;2022-08-11T11:15:19;3.30;;;2.50;;
944;SDS011;459;48.676;9.034;2022-08-11T11:18:25;2.87;;;2.57;;
944;SDS011;459;48.676;9.034;2022-08-11T11:20:52;3.10;;;2.90;;
944;SDS011;459;48.676;9.034;2022-08-11T11:23:39;4.77;;;4.27;;
944;SDS011;459;48.676;9.034;2022-08-11T11:34:22;3.73;;;3.30;;
944;SDS011;459;48.676;9.034;2022-08-11T11:36:54;2.83;;;2.63;;
944;SDS011;459;48.676;9.034;2022-08-11T11:39:22;3.97;;;2.73;;
944;SDS011;459;48.676;9.034;2022-08-11T11:41:51;2.77;;;2.47;;
944;SDS011;459;48.676;9.034;2022-08-11T11:44:17;3.03;;;2.83;;
944;SDS011;459;48.676;9.034;2022-08-11T11:46:43;5.27;;;2.57;;
944;SDS011;459;48.676;9.034;2022-08-11T11:49:09;3.90;;;2.67;;
944;SDS011;459;48.676;9.034;2022-08-11T11:51:35;3.20;;;2.50;;
944;SDS011;459;48.676;9.034;2022-08-11T11:54:01;4.43;;;3.00;;
944;SDS011;459;48.676;9.034;2022-08-11T11:56:27;3.23;;;2.80;;
944;SDS011;459;48.676;9.034;2022-08-11T11:58:53;5.60;;;3.57;;
944;SDS011;459;48.676;9.034;2022-08-11T12:01:37;2.80;;;2.60;;
944;SDS011;459;48.676;9.034;2022-08-11T12:04:02;3.00;;;2.77;;
944;SDS011;459;48.676;9.034;2022-08-11T12:06:30;3.20;;;2.90;;
944;SDS011;459;48.676;9.034;2022-08-11T12:08:56;2.53;;;2.33;;
944;SDS011;459;48.676;9.034;2022-08-11T12:11:22;2.43;;;2.23;;
944;SDS011;459;48.676;9.034;2022-08-11T12:14:07;2.60;;;2.40;;
944;SDS011;459;48.676;9.034;2022-08-11T12:16:33;2.60;;;2.40;;
944;SDS011;459;48.676;9.034;2022-08-11T12:18:59;2.97;;;2.77;;
944;SDS011;459;48.676;9.034;2022-08-11T12:21:25;3.40;;;2.77;;
944;SDS011;459;48.676;9.034;2022-08-11T12:23:51;3.90;;;2.50;;
944;SDS011;459;48.676;9.034;2022-08-11T12:26:35;3.90;;;2.73;;
944;SDS011;459;48.676;9.034;2022-08-11T12:29:29;2.80;;;2.27;;
944;SDS011;459;48.676;9.034;2022-08-11T12:31:55;2.50;;;2.30;;
944;SDS011;459;48.676;9.034;2022-08-11T12:34:22;3.40;;;2.20;;
944;SDS011;459;48.676;9.034;2022-08-11T12:36:55;2.77;;;2.57;;
944;SDS011;459;48.676;9.034;2022-08-11T12:39:22;2.47;;;2.27;;
944;SDS011;459;48.676;9.034;2022-08-11T12:42:12;3.03;;;2.70;;
944;SDS011;459;48.676;9.034;2022-08-11T12:44:56;2.70;;;2.50;;
944;SDS011;459;48.676;9.034;2022-08-11T12:47:42;2.60;;;2.00;;
944;SDS011;459;48.676;9.034;2022-08-11T12:50:29;6.37;;;2.63;;
944;SDS011;459;48.676;9.034;2022-08-11T12:53:13;2.03;;;1.83;;
944;SDS011;459;48.676;9.034;2022-08-11T12:55:39;2.60;;;2.40;;
944;SDS011;459;48.676;9.034;2022-08-11T12:58:23;2.50;;;2.30;;
944;SDS011;459;48.676;9.034;2022-08-11T13:00:49;5.80;;;2.40;;
944;SDS011;459;48.676;9.034;2022-08-11T13:03:33;2.43;;;2.23;;
944;SDS011;459;48.676;9.034;2022-08-11T13:06:17;2.40;;;2.30;;
944;SDS011;459;48.676;9.034;2022-08-11T13:08:43;2.37;;;2.20;;
944;SDS011;459;48.676;9.034;2022-08-11T13:11:09;2.70;;;2.50;;
944;SDS011;459;48.676;9.034;2022-08-11T13:13:53;2.60;;;2.30;;
944;SDS011;459;48.676;9.034;2022-08-11T13:16:30;2.83;;;2.63;;
944;SDS011;459;48.676;9.034;2022-08-11T13:18:56;2.93;;;2.53;;
944;SDS011;459;48.676;9.034;2022-08-11T13:21:22;3.90;;;2.40;;
944;SDS011;459;48.676;9.034;2022-08-11T13:23:49;3.27;;;2.80;;
944;SDS011;459;48.676;9.034;2022-08-11T13:26:14;3.10;;;2.50;;
944;SDS011;459;48.676;9.034;2022-08-11T13:28:40;2.33;;;2.13;;
944;SDS011;459;48.676;9.034;2022-08-11T13:31:05;2.70;;;2.50;;
944;SDS011;459;48.676;9.034;2022-08-11T13:33:41;2.57;;;2.10;;
944;SDS011;459;48.676;9.034;2022-08-11T13:36:07;2.50;;;2.30;;
944;SDS011;459;48.676;9.034;2022-08-11T13:38:33;4.33;;;2.20;;
944;SDS011;459;48.676;9.034;2022-08-11T13:40:59;2.73;;;2.20;;
944;SDS011;459;48.676;9.034;2022-08-11T13:43:24;2.50;;;2.30;;
944;SDS011;459;48.676;9.034;2022-08-11T13:45:50;3.60;;;2.10;;
944;SDS011;459;48.676;9.034;2022-08-11T13:48:16;2.77;;;2.57;;
944;SDS011;459;48.676;9.034;2022-08-11T13:50:43;3.17;;;2.40;;
944;SDS011;459;48.676;9.034;2022-08-11T13:53:28;2.40;;;2.20;;
944;SDS011;459;48.676;9.034;2022-08-11T13:55:54;4.40;;;2.20;;
944;SDS011;459;48.676;9.034;2022-08-11T13:58:21;7.23;;;2.30;;
944;SDS011;459;48.676;9.034;2022-08-11T14:00:48;3.37;;;2.57;;
944;SDS011;459;48.676;9.034;2022-08-11T14:03:13;2.43;;;2.23;;
944;SDS011;459;48.676;9.034;2022-08-11T14:05:40;2.77;;;2.53;;
944;SDS011;459;48.676;9.034;2022-08-11T14:08:08;3.03;;;2.60;;
944;SDS011;459;48.676;9.034;2022-08-11T14:10:36;2.70;;;2.50;;
944;SDS011;459;48.676;9.034;2022-08-11T14:13:03;3.70;;;2.33;;
944;SDS011;459;48.676;9.034;2022-08-11T14:15:49;2.50;;;2.13;;
944;SDS011;459;48.676;9.034;2022-08-11T14:18:20;2.83;;;2.33;;
944;SDS011;459;48.676;9.034;2022-08-11T14:20:48;3.03;;;2.50;;
944;SDS011;459;48.676;9.034;2022-08-11T14:23:43;2.63;;;2.33;;
944;SDS011;459;48.676;9.034;2022-08-11T14:26:09;2.53;;;2.20;;
944;SDS011;459;48.676;9.034;2022-08-11T14:28:59;4.37;;;2.30;;
944;SDS011;459;48.676;9.034;2022-08-11T14:31:25;2.37;;;2.13;;
944;SDS011;459;48.676;9.034;2022-08-11T14:33:51;2.10;;;1.90;;
944;SDS011;459;48.676;9.034;2022-08-11T14:36:18;2.33;;;2.13;;
944;SDS011;459;48.676;9.034;2022-08-11T14:38:44;2.20;;;2.00;;
944;SDS011;459;48.676;9.034;2022-08-11T14:41:09;3.10;;;2.20;;
944;SDS011;459;48.676;9.034;2022-08-11T14:43:54;3.23;;;2.13;;
944;SDS011;459;48.676;9.034;2022-08-11T14:46:39;2.30;;;2.10;;
944;SDS011;459;48.676;9.034;2022-08-11T14:49:24;3.33;;;2.33;;
944;SDS011;459;48.676;9.034;2022-08-11T14:51:50;2.70;;;2.30;;
944;SDS011;459;48.676;9.034;2022-08-11T14:54:17;4.17;;;2.40;;
944;SDS011;459;48.676;9.034;2022-08-11T14:57:01;4.57;;;2.23;;
944;SDS011;459;48.676;9.034;2022-08-11T14:59:27;3.30;;;2.40;;
944;SDS011;459;48.676;9.034;2022-08-11T15:01:52;3.00;;;2.10;;
944;SDS011;459;48.676;9.034;2022-08-11T15:04:37;3.13;;;2.17;;
944;SDS011;459;48.676;9.034;2022-08-11T15:07:02;2.40;;;2.03;;
944;SDS011;459;48.676;9.034;2022-08-11T15:09:28;2.23;;;2.03;;
944;SDS011;459;48.676;9.034;2022-08-11T15:11:53;2.50;;;2.00;;
944;SDS011;459;48.676;9.034;2022-08-11T15:14:34;4.30;;;2.20;;
944;SDS011;459;48.676;9.034;2022-08-11T15:17:18;2.40;;;1.97;;
944;SDS011;459;48.676;9.034;2022-08-11T15:19:44;2.20;;;2.03;;
944;SDS011;459;48.676;9.034;2022-08-11T15:22:29;3.83;;;2.13;;
944;SDS011;459;48.676;9.034;2022-08-11T15:25:13;1.83;;;1.73;;
944;SDS011;459;48.676;9.034;2022-08-11T15:27:38;2.80;;;2.60;;
944;SDS011;459;48.676;9.034;2022-08-11T15:30:23;2.90;;;2.10;;
944;SDS011;459;48.676;9.034;2022-08-11T15:33:08;3.23;;;2.40;;
944;SDS011;459;48.676;9.034;2022-08-11T15:35:53;4.50;;;1.97;;
944;SDS011;459;48.676;9.034;2022-08-11T15:38:41;2.13;;;1.93;;
944;SDS011;459;48.676;9.034;2022-08-11T15:41:08;2.80;;;2.10;;
944;SDS011;459;48.676;9.034;2022-08-11T15:43:53;3.10;;;2.70;;
944;SDS011;459;48.676;9.034;2022-08-11T15:46:44;2.20;;;2.00;;
944;SDS011;459;48.676;9.034;2022-08-11T15:49:12;2.80;;;2.20;;
944;SDS011;459;48.676;9.034;2022-08-11T15:51:41;2.60;;;2.33;;
944;SDS011;459;48.676;9.034;2022-08-11T15:54:10;2.37;;;2.17;;
944;SDS011;459;48.676;9.034;2022-08-11T15:56:45;2.90;;;2.03;;
944;SDS011;459;48.676;9.034;2022-08-11T15:59:13;2.90;;;2.70;;
944;SDS011;459;48.676;9.034;2022-08-11T16:01:59;5.30;;;2.00;;
944;SDS011;459;48.676;9.034;2022-08-11T16:04:51;3.30;;;2.20;;
944;SDS011;459;48.676;9.034;2022-08-11T16:07:18;2.53;;;2.27;;
944;SDS011;459;48.676;9.034;2022-08-11T16:10:02;3.50;;;2.57;;
944;SDS011;459;48.676;9.034;2022-08-11T16:12:31;2.57;;;2.10;;
944;SDS011;459;48.676;9.034;2022-08-11T16:15:00;2.93;;;2.10;;
944;SDS011;459;48.676;9.034;2022-08-11T16:17:46;3.80;;;2.50;;
944;SDS011;459;48.676;9.034;2022-08-11T16:20:13;2.20;;;2.00;;
944;SDS011;459;48.676;9.034;2022-08-11T16:22:39;2.53;;;2.33;;
944;SDS011;459;48.676;9.034;2022-08-11T16:25:11;2.07;;;1.97;;
944;SDS011;459;48.676;9.034;2022-08-11T16:27:46;4.07;;;2.23;;
944;SDS011;459;48.676;9.034;2022-08-11T16:30:11;2.10;;;1.80;;
944;SDS011;459;48.676;9.034;2022-08-11T16:32:39;2.10;;;1.80;;
944;SDS011;459;48.676;9.034;2022-08-11T16:35:06;4.73;;;2.30;;
944;SDS011;459;48.676;9.034;2022-08-11T16:37:52;4.83;;;2.60;;
944;SDS011;459;48.676;9.034;2022-08-11T16:40:36;2.70;;;2.50;;
944;SDS011;459;48.676;9.034;2022-08-11T16:43:04;2.23;;;2.03;;
944;SDS011;459;48.676;9.034;2022-08-11T16:45:48;3.43;;;2.27;;
944;SDS011;459;48.676;9.034;2022-08-11T16:48:33;2.70;;;2.00;;
944;SDS011;459;48.676;9.034;2022-08-11T16:50:59;2.47;;;2.27;;
944;SDS011;459;48.676;9.034;2022-08-11T16:53:25;4.70;;;2.10;;
944;SDS011;459;48.676;9.034;2022-08-11T16:55:51;2.40;;;1.97;;
944;SDS011;459;48.676;9.034;2022-08-11T16:58:17;3.30;;;2.40;;
944;SDS011;459;48.676;9.034;2022-08-11T17:01:02;3.40;;;2.70;;
944;SDS011;459;48.676;9.034;2022-08-11T17:03:28;2.90;;;2.30;;
944;SDS011;459;48.676;9.034;2022-08-11T17:06:13;2.20;;;2.10;;
944;SDS011;459;48.676;9.034;2022-08-11T17:08:57;4.97;;;2.80;;
944;SDS011;459;48.676;9.034;2022-08-11T17:11:44;2.87;;;2.23;;
944;SDS011;459;48.676;9.034;2022-08-11T17:14:38;2.60;;;2.40;;
944;SDS011;459;48.676;9.034;2022-08-11T17:17:06;2.67;;;2.10;;
944;SDS011;459;48.676;9.034;2022-08-11T17:19:32;2.90;;;2.57;;
944;SDS011;459;48.676;9.034;2022-08-11T17:21:59;3.00;;;2.60;;
944;SDS011;459;48.676;9.034;2022-08-11T17:24:44;3.83;;;2.40;;
944;SDS011;459;48.676;9.034;2022-08-11T17:27:09;5.37;;;2.70;;
944;SDS011;459;48.676;9.034;2022-08-11T17:29:43;4.53;;;2.87;;
944;SDS011;459;48.676;9.034;2022-08-11T17:32:11;3.07;;;2.50;;
944;SDS011;459;48.676;9.034;2022-08-11T17:34:57;2.60;;;2.40;;
944;SDS011;459;48.676;9.034;2022-08-11T17:37:41;3.47;;;2.17;;
944;SDS011;459;48.676;9.034;2022-08-11T17:40:08;2.50;;;2.30;;
944;SDS011;459;48.676;9.034;2022-08-11T17:42:33;3.10;;;2.80;;
944;SDS011;459;48.676;9.034;2022-08-11T17:45:18;3.27;;;2.60;;
944;SDS011;459;48.676;9.034;2022-08-11T17:48:03;2.90;;;2.70;;
944;SDS011;459;48.676;9.034;2022-08-11T17:50:47;5.43;;;2.37;;
944;SDS011;459;48.676;9.034;2022-08-11T17:53:13;2.70;;;2.30;;
944;SDS011;459;48.676;9.034;2022-08-11T17:55:57;2.50;;;2.30;;
944;SDS011;459;48.676;9.034;2022-08-11T17:58:58;3.50;;;2.23;;
944;SDS011;459;48.676;9.034;2022-08-11T18:01:43;3.23;;;2.60;;
944;SDS011;459;48.676;9.034;2022-08-11T18:04:10;2.77;;;2.00;;
944;SDS011;459;48.676;9.034;2022-08-11T18:06:36;2.80;;;2.60;;
944;SDS011;459;48.676;9.034;2022-08-11T18:09:03;2.83;;;2.60;;
944;SDS011;459;48.676;9.034;2022-08-11T18:11:47;2.57;;;2.30;;
944;SDS011;459;48.676;9.034;2022-08-11T18:14:32;3.60;;;2.20;;
944;SDS011;459;48.676;9.034;2022-08-11T18:17:16;4.60;;;2.40;;
944;SDS011;459;48.676;9.034;2022-08-11T18:20:00;3.00;;;2.30;;
944;SDS011;459;48.676;9.034;2022-08-11T18:22:44;2.73;;;2.10;;
944;SDS011;459;48.676;9.034;2022-08-11T18:25:30;3.37;;;2.80;;
944;SDS011;459;48.676;9.034;2022-08-11T18:28:15;3.77;;;2.67;;
944;SDS011;459;48.676;9.034;2022-08-11T18:31:00;3.57;;;2.67;;
944;SDS011;459;48.676;9.034;2022-08-11T18:33:52;2.47;;;2.23;;
944;SDS011;459;48.676;9.034;2022-08-11T18:36:37;2.60;;;2.40;;
944;SDS011;459;48.676;9.034;2022-08-11T18:39:23;2.40;;;2.20;;
944;SDS011;459;48.676;9.034;2022-08-11T18:42:08;3.90;;;2.60;;
944;SDS011;459;48.676;9.034;2022-08-11T18:44:54;4.00;;;2.83;;
944;SDS011;459;48.676;9.034;2022-08-11T18:47:40;3.53;;;2.87;;
944;SDS011;459;48.676;9.034;2022-08-11T18:50:24;3.20;;;2.80;;
944;SDS011;459;48.676;9.034;2022-08-11T18:53:09;4.33;;;2.40;;
944;SDS011;459;48.676;9.034;2022-08-11T18:55:53;2.90;;;2.70;;
944;SDS011;459;48.676;9.034;2022-08-11T18:58:37;3.83;;;2.53;;
944;SDS011;459;48.676;9.034;2022-08-11T19:01:23;3.23;;;2.63;;
944;SDS011;459;48.676;9.034;2022-08-11T19:04:07;2.40;;;2.20;;
944;SDS011;459;48.676;9.034;2022-08-11T19:06:53;2.87;;;2.40;;
944;SDS011;459;48.676;9.034;2022-08-11T19:09:39;4.70;;;2.77;;
944;SDS011;459;48.676;9.034;2022-08-11T19:12:23;2.90;;;2.43;;
944;SDS011;459;48.676;9.034;2022-08-11T19:15:07;4.10;;;2.57;;
944;SDS011;459;48.676;9.034;2022-08-11T19:17:52;2.70;;;2.40;;
944;SDS011;459;48.676;9.034;2022-08-11T19:20:36;2.83;;;2.63;;